• Join FlightAware (Why Join?)
  • Login
  • US Flag 
02:29AM EDT


 

Airport Tracker/Info


-or-


 

Live Flight TrackerFlight Track Log ✈ DAL6034 ✈ 14-Apr-2013 ✈ KMHT - KLGA

Flight Track Log - Related Links

Times and Time Zones

All times are in EDT time to prevent confusion due to time zone crossing. See the DAL6034 flight status page for this flight to view local times or setup timezone preferences in your user account.

Time Position Orientation Groundspeed Altitude Reporting Facility
EDT Latitude Longitude Course Direction KTS MPH feet Rate Location/Type
05:15PM 42.9500 -71.4333 324° Northwest 162 186 1,100  Level KA90
05:16PM 42.9667 -71.4500 324° Northwest 165 190 2,300 2,280 Climbing KA90
05:17PM 43.0069 -71.4861 327° Northwest 209 241 4,400 2,400 Climbing Boston Center
05:18PM 43.0347 -71.5483 301° West 202 232 6,900 2,580 Climbing Boston Center
05:19PM 43.0394 -71.6419 274° West 221 254 9,500 2,640 Climbing Boston Center
05:20PM 43.0003 -71.7019 228° Southwest 236 272 12,100 2,400 Climbing Boston Center
05:21PM 42.9467 -71.7708 223° Southwest 241 277 14,500 2,160 Climbing Boston Center
05:22PM 42.9053 -71.8336 228° Southwest 253 291 16,600 2,100 Climbing Boston Center
05:23PM 42.8828 -71.9217 251° West 232 267 18,800 2,100 Climbing Boston Center
05:24PM 42.8644 -72.0011 253° West 232 267 20,800 1,620 Climbing Boston Center
05:25PM 42.8439 -72.0861 252° West 232 267 22,000 600 Climbing Boston Center
05:26PM 42.8211 -72.1911 254° West 259 298 22,000  Level Boston Center
05:27PM 42.8006 -72.2844 253° West 281 323 22,000  Level Boston Center
05:28PM 42.7422 -72.3722 228° Southwest 292 336 22,000  Level Boston Center
05:29PM 42.6775 -72.4542 223° Southwest 307 353 22,000  Level Boston Center
05:30PM 42.6214 -72.5303 225° Southwest 307 353 22,000  Level Boston Center
05:31PM 42.5544 -72.6064 220° Southwest 307 353 22,000  Level Boston Center
05:32PM 42.4961 -72.6794 223° Southwest 302 348 22,000  Level Boston Center
05:33PM 42.4375 -72.7581 225° Southwest 296 341 22,000  Level Boston Center
05:34PM 42.3811 -72.8281 223° Southwest 296 341 22,000  Level Boston Center
05:35PM 42.3203 -72.9175 227° Southwest 303 349 22,000 -540 Level Boston Center
05:36PM 42.2594 -72.9956 224° Southwest 309 356 21,000 -1,260 Descending Boston Center
05:37PM 42.2047 -73.0736 227° Southwest 298 343 19,500 -1,500 Descending Boston Center
05:38PM 42.1503 -73.1514 227° Southwest 279 321 18,000 -840 Descending Boston Center
05:39PM 42.1017 -73.2181 226° Southwest 274 315 17,900 -60 Descending Boston Center
05:40PM 42.0364 -73.3150 228° Southwest 302 348 17,900  Level Boston Center
05:41PM 41.9733 -73.4064 227° Southwest 334 384 17,900  Level Boston Center
05:42PM 41.8997 -73.4664 211° Southwest 346 398 17,900 -600 Level Boston Center
05:43PM 41.8011 -73.5261 204° Southwest 352 405 16,800 -1,380 Descending Boston Center
05:44PM 41.7217 -73.5747 205° Southwest 358 412 15,200 -1,740 Descending Boston Center
05:45PM 41.6250 -73.6342 205° Southwest 358 412 13,400 -1,800 Descending Boston Center
05:46PM 41.5333 -73.6833 202° Southwest 328 377 11,800 -1,740 Descending New York TRACON
05:47PM 41.4667 -73.7167 201° Southwest 282 325 10,100 -1,800 Descending New York TRACON
05:48PM 41.4000 -73.7667 209° Southwest 269 310 8,300 -1,020 Descending New York TRACON
05:49PM 41.3333 -73.7833 191° South 293 337 8,100 -120 Descending New York TRACON
05:50PM 41.2500 -73.7167 149° Southeast 333 383 8,100 -480 Level New York TRACON
05:51PM 41.1667 -73.6500 149° Southeast 322 371 7,100 -1,080 Descending New York TRACON
05:52PM 41.0833 -73.6167 163° South 289 333 5,900 -1,200 Descending New York TRACON
05:53PM 41.0167 -73.6167 180° South 262 302 4,700 -960 Descending New York TRACON
05:54PM 40.9500 -73.6000 169° South 253 291 4,000 -360 Descending New York TRACON
05:55PM 40.8833 -73.6167 191° South 240 276 4,000  Level New York TRACON
05:56PM 40.8333 -73.6667 217° Southwest 251 289 4,100  Climbing New York TRACON
05:57PM 40.8000 -73.7500 242° Southwest 241 277 4,000 -60 Descending New York TRACON
05:58PM 40.7833 -73.8333 255° West 235 270 4,000  Level New York TRACON
05:59PM 40.7667 -73.9167 255° West 234 269 4,000 -120 Level New York TRACON
06:00PM 40.7667 -73.9833 270° West 187 215 3,800 -540 Descending New York TRACON
06:01PM 40.7167 -73.9500 153° Southeast 196 226 3,000 -900 Descending New York TRACON
06:02PM 40.7333 -73.9000 66° East 171 197 2,100 -1,020 Descending New York TRACON
06:03PM 40.7333 -73.8500 90° East 148 170 1,000 -1,140 Descending New York TRACON